Time;durP1;ratioP1;P1;durP2;ratioP2;P2;SDS_P1;SDS_P2;PMS_P1;PMS_P2;Temp;Humidity;BMP_temperature;BMP_pressure;BME280_temperature;BME280_humidity;BME280_pressure;Samples;Min_cycle;Max_cycle;Signal;HPM_P1;HPM_P2
2022/10/22 00:00:39;;;;;;;9.68;6.22;;;;;;;;;;6130038;19;19946;-83
2022/10/22 00:02:43;;;;;;;11.88;5.90;;;12.00;99.90;;;;;;6128613;19;19946;-82
2022/10/22 00:04:47;;;;;;;9.73;6.10;;;;;;;;;;6132581;19;19919;-83
2022/10/22 00:06:53;;;;;;;12.60;6.82;;;12.10;99.90;;;;;;6130598;19;19938;-83
2022/10/22 00:08:57;;;;;;;10.55;6.55;;;12.00;99.90;;;;;;6136446;19;19922;-82
2022/10/22 00:11:01;;;;;;;12.40;6.78;;;;;;;;;;6132548;19;19921;-82
2022/10/22 00:13:05;;;;;;;8.93;6.40;;;12.20;99.90;;;;;;6131647;19;19919;-83
2022/10/22 00:15:10;;;;;;;9.93;6.60;;;11.90;99.90;;;;;;6132188;19;19910;-83
2022/10/22 00:17:14;;;;;;;9.55;5.97;;;12.00;99.90;;;;;;6134088;19;19942;-83
2022/10/22 00:19:17;;;;;;;8.85;5.97;;;12.20;99.90;;;;;;6132331;19;19911;-83
2022/10/22 00:21:21;;;;;;;12.02;6.38;;;12.20;99.90;;;;;;6132253;19;19918;-82
2022/10/22 00:23:28;;;;;;;12.82;6.47;;;12.10;99.90;;;;;;6133089;19;19933;-84
2022/10/22 00:25:32;;;;;;;9.55;6.47;;;11.90;99.90;;;;;;6131623;19;19970;-83
2022/10/22 00:27:36;;;;;;;12.52;5.85;;;12.00;99.90;;;;;;6134325;19;19922;-82
2022/10/22 00:29:40;;;;;;;9.85;6.28;;;12.10;99.90;;;;;;6130403;19;20271;-83
2022/10/22 00:31:48;;;;;;;10.02;6.43;;;12.20;99.90;;;;;;6130350;19;19941;-83
2022/10/22 00:33:52;;;;;;;11.10;5.93;;;;;;;;;;6133050;19;19928;-83
2022/10/22 00:35:56;;;;;;;10.63;5.63;;;12.10;99.90;;;;;;6132596;19;19926;-83
2022/10/22 00:38:00;;;;;;;9.38;5.80;;;12.00;99.90;;;;;;6133298;19;19922;-83
2022/10/22 00:40:07;;;;;;;13.80;5.95;;;11.90;99.90;;;;;;6131530;19;19941;-84
2022/10/22 00:42:17;;;;;;;10.82;5.80;;;12.00;99.90;;;;;;6131629;19;19919;-84
2022/10/22 00:44:51;;;;;;;9.07;6.40;;;11.90;99.90;;;;;;6131422;19;19922;-85
2022/10/22 00:46:55;;;;;;;9.38;5.45;;;;;;;;;;6130156;19;19915;-84
2022/10/22 00:49:02;;;;;;;9.23;5.72;;;11.70;99.90;;;;;;6131429;19;19990;-84
2022/10/22 00:51:08;;;;;;;12.27;6.28;;;11.90;99.90;;;;;;6131221;19;20012;-83
2022/10/22 00:53:15;;;;;;;9.18;5.57;;;11.60;99.90;;;;;;6132499;19;19911;-84
2022/10/22 00:55:23;;;;;;;7.93;5.40;;;11.80;99.90;;;;;;6131254;19;19953;-82
2022/10/22 00:57:26;;;;;;;9.63;5.55;;;12.00;99.90;;;;;;6131423;19;20332;-84
2022/10/22 00:59:31;;;;;;;9.60;5.55;;;11.80;99.90;;;;;;6131344;19;19946;-82
2022/10/22 01:01:35;;;;;;;9.02;5.60;;;11.90;99.90;;;;;;6132709;19;19953;-83
2022/10/22 01:03:39;;;;;;;9.25;5.22;;;11.80;99.90;;;;;;6132617;19;19918;-87
2022/10/22 01:05:45;;;;;;;10.55;5.93;;;11.80;99.90;;;;;;6133010;19;20598;-83
2022/10/22 01:07:51;;;;;;;6.57;5.03;;;11.70;99.90;;;;;;6132355;19;19918;-83
2022/10/22 01:10:07;;;;;;;8.30;5.35;;;11.80;99.90;;;;;;6131058;19;19918;-84
2022/10/22 01:12:20;;;;;;;9.52;5.65;;;11.80;99.90;;;;;;6131222;19;19926;-84
2022/10/22 01:14:32;;;;;;;11.63;5.60;;;11.60;99.90;;;;;;6132702;19;19922;-83
2022/10/22 01:16:39;;;;;;;7.18;4.70;;;11.90;99.90;;;;;;6132801;19;19942;-84
2022/10/22 01:18:55;;;;;;;7.75;5.15;;;12.00;99.90;;;;;;6130412;19;19944;-83
2022/10/22 01:21:09;;;;;;;7.90;5.30;;;12.00;99.90;;;;;;6132260;19;19923;-86
2022/10/22 01:23:27;;;;;;;8.88;5.32;;;11.90;99.90;;;;;;6131503;19;19938;-84
2022/10/22 01:25:36;;;;;;;7.20;5.00;;;12.00;99.90;;;;;;6132284;19;20381;-84
2022/10/22 01:27:56;;;;;;;9.45;5.28;;;11.80;99.90;;;;;;6129102;19;19934;-87
2022/10/22 01:30:07;;;;;;;10.45;5.15;;;11.70;99.90;;;;;;6129039;19;19911;-88
2022/10/22 01:32:14;;;;;;;6.72;4.70;;;11.70;99.90;;;;;;6129859;19;20037;-84
2022/10/22 01:34:20;;;;;;;8.20;4.97;;;11.90;99.90;;;;;;6130735;19;19911;-84
2022/10/22 01:36:24;;;;;;;7.90;4.55;;;11.90;99.90;;;;;;6132459;19;19922;-82
2022/10/22 01:38:28;;;;;;;9.65;5.00;;;12.00;99.90;;;;;;6130756;19;19938;-84
2022/10/22 01:40:33;;;;;;;8.20;4.78;;;11.70;99.90;;;;;;6134036;19;19925;-83
2022/10/22 01:42:37;;;;;;;9.85;5.50;;;11.80;99.90;;;;;;6131956;19;19915;-85
2022/10/22 01:44:41;;;;;;;11.20;5.05;;;11.60;99.90;;;;;;6133606;19;19942;-83
2022/10/22 01:46:52;;;;;;;8.70;5.13;;;11.80;99.90;;;;;;6132578;19;19919;-83
2022/10/22 01:49:14;;;;;;;8.75;4.57;;;11.90;99.90;;;;;;6136730;19;19915;-82
2022/10/22 01:51:33;;;;;;;8.18;4.97;;;11.80;99.90;;;;;;6137619;19;19926;-84
2022/10/22 01:53:46;;;;;;;7.40;5.05;;;12.00;99.90;;;;;;6130977;19;19934;-83
2022/10/22 01:56:07;;;;;;;10.65;5.22;;;11.90;99.90;;;;;;6132262;19;20344;-83
2022/10/22 01:58:24;;;;;;;7.60;4.32;;;11.70;99.90;;;;;;6133952;19;19941;-83
2022/10/22 02:00:28;;;;;;;9.25;5.05;;;11.60;99.90;;;;;;6133879;19;20284;-81
2022/10/22 02:02:42;;;;;;;8.73;4.72;;;11.70;99.90;;;;;;6130977;19;20355;-82
2022/10/22 02:04:51;;;;;;;9.05;4.50;;;11.60;99.90;;;;;;6131181;19;20256;-82
2022/10/22 02:06:57;;;;;;;6.97;4.43;;;11.50;99.90;;;;;;6129254;19;19915;-82
2022/10/22 02:09:04;;;;;;;11.98;4.97;;;11.70;99.90;;;;;;6131688;19;19941;-82
2022/10/22 02:11:08;;;;;;;9.20;5.28;;;11.50;99.90;;;;;;6133747;19;20275;-83
2022/10/22 02:13:17;;;;;;;6.50;4.15;;;12.10;99.90;;;;;;6130006;19;19918;-83
2022/10/22 02:15:24;;;;;;;8.10;4.43;;;11.90;99.90;;;;;;6131837;19;19941;-83
2022/10/22 02:17:33;;;;;;;9.73;4.75;;;11.70;99.90;;;;;;6129751;19;19915;-82
2022/10/22 02:19:48;;;;;;;7.88;4.40;;;11.70;99.90;;;;;;6131319;19;19922;-82
2022/10/22 02:21:51;;;;;;;6.82;4.70;;;11.90;99.90;;;;;;6132810;19;20332;-83
2022/10/22 02:23:56;;;;;;;6.72;4.68;;;11.80;99.90;;;;;;6132180;19;19918;-83
2022/10/22 02:26:05;;;;;;;8.20;5.15;;;11.80;99.90;;;;;;6129456;19;19925;-83
2022/10/22 02:28:15;;;;;;;9.60;5.18;;;11.70;99.90;;;;;;6126283;19;20341;-83
2022/10/22 02:30:21;;;;;;;6.82;4.50;;;11.70;99.90;;;;;;6132454;19;20272;-84
2022/10/22 02:32:30;;;;;;;9.10;4.47;;;11.70;99.90;;;;;;6129708;19;19914;-83
2022/10/22 02:34:34;;;;;;;9.77;4.32;;;11.70;99.90;;;;;;6130408;19;19962;-83
2022/10/22 02:36:43;;;;;;;8.90;4.47;;;11.50;99.90;;;;;;6129693;19;19915;-83
2022/10/22 02:38:48;;;;;;;6.22;3.70;;;11.50;99.90;;;;;;6129815;19;19931;-83
2022/10/22 02:40:52;;;;;;;8.63;4.05;;;11.30;99.90;;;;;;6129819;19;19914;-81
2022/10/22 02:42:56;;;;;;;7.53;4.75;;;;;;;;;;6129840;19;19930;-83
2022/10/22 02:45:00;;;;;;;7.75;4.57;;;11.30;99.90;;;;;;6130791;19;19918;-83
2022/10/22 02:47:04;;;;;;;9.65;4.68;;;11.00;99.90;;;;;;6128758;19;19926;-83
2022/10/22 02:49:09;;;;;;;6.60;3.95;;;;;;;;;;6130358;19;19922;-83
2022/10/22 02:51:12;;;;;;;11.40;4.50;;;11.10;99.90;;;;;;6129150;19;20288;-83
2022/10/22 02:53:19;;;;;;;9.60;4.38;;;11.40;99.90;;;;;;6128644;19;20271;-83
2022/10/22 02:55:23;;;;;;;6.78;4.28;;;11.20;99.90;;;;;;6129240;19;19941;-83
2022/10/22 02:57:27;;;;;;;7.75;4.50;;;11.30;99.90;;;;;;6129237;19;20237;-83
2022/10/22 02:59:31;;;;;;;8.40;4.43;;;11.10;99.90;;;;;;6129621;19;19911;-84
2022/10/22 03:01:35;;;;;;;7.68;4.55;;;11.20;99.90;;;;;;6129947;19;19915;-83
2022/10/22 03:03:39;;;;;;;5.47;3.85;;;11.40;99.90;;;;;;6131182;19;19942;-83
2022/10/22 03:05:43;;;;;;;8.27;4.60;;;11.40;99.90;;;;;;6131356;19;19919;-83
2022/10/22 03:07:46;;;;;;;9.52;4.85;;;11.20;99.90;;;;;;6131975;19;19923;-82
2022/10/22 03:09:53;;;;;;;8.60;4.32;;;11.40;99.90;;;;;;6130122;19;19941;-83
2022/10/22 03:11:57;;;;;;;11.88;5.38;;;11.30;99.90;;;;;;6131225;19;19915;-83
2022/10/22 03:14:00;;;;;;;9.75;5.07;;;11.20;99.90;;;;;;6131293;19;19914;-82
2022/10/22 03:16:04;;;;;;;10.00;4.82;;;11.20;99.90;;;;;;6129952;19;19915;-83
2022/10/22 03:18:08;;;;;;;7.82;4.22;;;11.30;99.90;;;;;;6131289;19;20272;-83
2022/10/22 03:20:12;;;;;;;6.20;4.43;;;10.90;99.90;;;;;;6130087;19;19919;-82
2022/10/22 03:22:22;;;;;;;7.13;4.45;;;11.10;99.90;;;;;;6131729;19;19942;-83
2022/10/22 03:24:30;;;;;;;10.48;5.05;;;11.10;99.90;;;;;;6129507;19;19914;-82
2022/10/22 03:26:38;;;;;;;14.23;5.38;;;11.20;99.90;;;;;;6129044;19;19915;-83
2022/10/22 03:28:43;;;;;;;6.82;4.07;;;11.00;99.90;;;;;;6130494;19;19915;-82
2022/10/22 03:30:46;;;;;;;8.20;4.50;;;11.10;99.90;;;;;;6127679;19;21529;-83
2022/10/22 03:32:50;;;;;;;8.25;4.88;;;;;;;;;;6128635;19;19926;-84
2022/10/22 03:34:54;;;;;;;8.48;4.80;;;11.10;99.90;;;;;;6129532;19;19934;-84
2022/10/22 03:37:00;;;;;;;6.70;4.45;;;11.00;99.90;;;;;;6129990;19;19945;-83
2022/10/22 03:39:04;;;;;;;10.25;5.30;;;;;;;;;;6128624;19;19914;-84
2022/10/22 03:41:08;;;;;;;10.80;5.15;;;10.90;99.90;;;;;;6130502;19;19923;-84
2022/10/22 03:43:15;;;;;;;10.02;4.90;;;11.00;99.90;;;;;;6128945;19;19915;-84
2022/10/22 03:45:19;;;;;;;9.52;5.25;;;11.00;99.90;;;;;;6129772;19;19914;-82
2022/10/22 03:47:24;;;;;;;10.60;5.10;;;;;;;;;;6128841;19;19918;-84
2022/10/22 03:49:27;;;;;;;9.77;4.82;;;10.90;99.90;;;;;;6129176;19;19914;-84
2022/10/22 03:51:31;;;;;;;13.88;5.35;;;11.00;99.90;;;;;;6132034;19;19923;-84
2022/10/22 03:53:35;;;;;;;9.57;5.63;;;10.90;99.90;;;;;;6128862;19;19946;-84
2022/10/22 03:55:41;;;;;;;8.70;5.07;;;11.10;99.90;;;;;;6128223;19;20248;-84
2022/10/22 03:57:45;;;;;;;8.57;5.03;;;11.20;99.90;;;;;;6127180;19;19907;-83
2022/10/22 03:59:52;;;;;;;11.30;5.43;;;11.70;99.90;;;;;;6126664;19;20233;-83
2022/10/22 04:01:56;;;;;;;9.45;4.90;;;11.00;99.90;;;;;;6127833;19;19922;-83
2022/10/22 04:04:00;;;;;;;12.48;5.50;;;10.90;99.90;;;;;;6127309;19;19941;-84
2022/10/22 04:06:05;;;;;;;8.73;4.97;;;10.90;99.90;;;;;;6128111;19;19938;-83
2022/10/22 04:08:09;;;;;;;8.32;5.13;;;10.90;99.90;;;;;;6126129;19;19934;-83
2022/10/22 04:10:12;;;;;;;8.57;5.00;;;11.00;99.90;;;;;;6127523;19;19922;-84
2022/10/22 04:12:16;;;;;;;5.70;4.38;;;11.00;99.90;;;;;;6129537;19;19922;-83
2022/10/22 04:14:20;;;;;;;10.68;5.93;;;11.00;99.90;;;;;;6127290;19;19939;-83
2022/10/22 04:16:29;;;;;;;10.68;5.20;;;10.80;99.90;;;;;;6127342;19;20352;-83
2022/10/22 04:18:33;;;;;;;12.43;4.85;;;11.00;99.90;;;;;;6129673;19;19941;-84
2022/10/22 04:20:37;;;;;;;7.03;4.43;;;;;;;;;;6127896;19;20306;-84
2022/10/22 04:22:41;;;;;;;10.02;4.57;;;11.00;99.90;;;;;;6129662;19;19949;-84
2022/10/22 04:24:45;;;;;;;8.38;4.75;;;10.90;99.90;;;;;;6126424;19;19915;-83
2022/10/22 04:26:49;;;;;;;7.70;4.25;;;10.90;99.90;;;;;;6126872;19;19910;-83
2022/10/22 04:28:54;;;;;;;9.52;4.55;;;10.90;99.90;;;;;;6125631;19;19914;-83
2022/10/22 04:30:58;;;;;;;7.20;5.03;;;;;;;;;;6126694;19;20268;-83
2022/10/22 04:33:05;;;;;;;6.43;4.47;;;10.80;99.90;;;;;;6127261;19;19938;-84
2022/10/22 04:35:09;;;;;;;8.55;4.85;;;10.90;99.90;;;;;;6127809;19;19919;-84
2022/10/22 04:37:13;;;;;;;10.15;5.05;;;10.80;99.90;;;;;;6128423;19;19934;-83
2022/10/22 04:39:17;;;;;;;8.93;4.72;;;10.80;99.90;;;;;;6129158;19;19918;-84
2022/10/22 04:41:23;;;;;;;8.13;4.80;;;10.70;99.90;;;;;;6127287;19;19918;-84
2022/10/22 04:43:27;;;;;;;7.07;4.90;;;11.00;99.90;;;;;;6127673;19;19915;-84
2022/10/22 04:45:31;;;;;;;8.07;5.05;;;11.00;99.90;;;;;;6123279;19;19937;-83
2022/10/22 04:47:35;;;;;;;10.93;6.03;;;;;;;;;;6126450;19;19918;-84
2022/10/22 04:49:42;;;;;;;7.20;4.75;;;11.00;99.90;;;;;;6129285;19;19926;-83
2022/10/22 04:51:46;;;;;;;7.72;5.03;;;;;;;;;;6128750;19;19947;-83
2022/10/22 04:53:50;;;;;;;8.18;5.10;;;10.80;99.90;;;;;;6129599;19;19957;-83
2022/10/22 04:55:55;;;;;;;8.77;4.78;;;11.00;99.90;;;;;;6130661;19;19919;-83
2022/10/22 04:58:00;;;;;;;8.50;4.57;;;10.90;99.90;;;;;;6134796;19;19946;-83
2022/10/22 05:00:04;;;;;;;8.88;4.82;;;10.70;99.90;;;;;;6132726;19;19938;-83
2022/10/22 05:02:07;;;;;;;8.38;5.13;;;10.80;99.90;;;;;;6139698;19;20274;-83
2022/10/22 05:04:14;;;;;;;10.00;5.10;;;10.80;99.90;;;;;;6135995;19;19923;-83
2022/10/22 05:06:22;;;;;;;9.23;5.13;;;10.80;99.90;;;;;;6133938;19;19949;-82
2022/10/22 05:08:25;;;;;;;10.60;5.00;;;10.70;99.90;;;;;;6134563;19;19926;-83
2022/10/22 05:10:30;;;;;;;11.75;5.63;;;10.80;99.90;;;;;;6132935;19;20283;-82
2022/10/22 05:12:34;;;;;;;9.00;4.97;;;10.70;99.90;;;;;;6131003;19;19915;-82
2022/10/22 05:14:37;;;;;;;7.88;5.05;;;10.80;99.90;;;;;;6130753;19;20015;-82
2022/10/22 05:16:41;;;;;;;8.00;5.43;;;10.80;99.90;;;;;;6132856;19;20252;-82
2022/10/22 05:18:47;;;;;;;9.02;5.25;;;10.70;99.90;;;;;;6133073;19;19911;-82
2022/10/22 05:20:50;;;;;;;10.00;5.70;;;10.80;99.90;;;;;;6131342;19;19915;-83
2022/10/22 05:22:57;;;;;;;12.68;5.57;;;10.80;99.90;;;;;;6133566;19;20372;-82
2022/10/22 05:25:01;;;;;;;9.30;4.70;;;;;;;;;;6131508;19;19923;-84
2022/10/22 05:27:05;;;;;;;10.43;5.10;;;10.70;99.90;;;;;;6133650;19;19949;-83
2022/10/22 05:29:09;;;;;;;10.10;5.47;;;10.80;99.90;;;;;;6130066;19;19958;-84
2022/10/22 05:31:15;;;;;;;8.25;5.85;;;10.80;99.90;;;;;;6131960;19;20348;-84
2022/10/22 05:33:21;;;;;;;7.50;5.05;;;10.80;99.90;;;;;;6135309;19;19914;-83
2022/10/22 05:35:25;;;;;;;10.32;5.35;;;10.90;99.90;;;;;;6131683;19;20280;-83
2022/10/22 05:37:28;;;;;;;12.88;5.75;;;10.80;99.90;;;;;;6132111;19;19945;-83
2022/10/22 05:39:38;;;;;;;10.25;5.47;;;10.90;99.90;;;;;;6127454;19;19942;-84
2022/10/22 05:41:42;;;;;;;10.75;5.20;;;10.70;99.90;;;;;;6128761;19;20375;-83
2022/10/22 05:43:47;;;;;;;8.95;5.32;;;10.90;99.90;;;;;;6131751;19;20396;-83
2022/10/22 05:45:51;;;;;;;9.77;5.53;;;10.90;99.90;;;;;;6124468;19;19922;-83
2022/10/22 05:47:55;;;;;;;9.50;5.53;;;10.40;99.90;;;;;;6131631;19;19989;-83
2022/10/22 05:49:59;;;;;;;9.85;5.50;;;10.80;99.90;;;;;;6128810;19;19926;-84
2022/10/22 05:52:02;;;;;;;11.02;5.85;;;11.00;99.90;;;;;;6130244;19;19918;-83
2022/10/22 05:54:09;;;;;;;13.98;5.95;;;10.90;99.90;;;;;;6130128;19;19914;-81
2022/10/22 05:56:18;;;;;;;11.48;5.75;;;10.90;99.90;;;;;;6125398;19;19930;-84
2022/10/22 05:58:22;;;;;;;11.07;6.10;;;;;;;;;;6129407;19;19915;-83
2022/10/22 06:00:26;;;;;;;12.00;6.68;;;10.70;99.90;;;;;;6133810;19;19915;-83
2022/10/22 06:02:30;;;;;;;11.02;5.65;;;10.40;99.90;;;;;;6130587;19;19922;-84
2022/10/22 06:04:33;;;;;;;11.95;5.70;;;11.10;99.90;;;;;;6134064;19;19918;-83
2022/10/22 06:06:40;;;;;;;11.02;5.47;;;10.90;99.90;;;;;;6133436;19;19942;-81
2022/10/22 06:08:44;;;;;;;9.82;6.07;;;10.90;99.90;;;;;;6132500;19;19922;-82
2022/10/22 06:10:47;;;;;;;9.98;5.43;;;10.90;99.90;;;;;;6131189;19;19918;-83
2022/10/22 06:12:54;;;;;;;12.65;6.03;;;10.80;99.90;;;;;;6130312;19;20244;-83
2022/10/22 06:14:58;;;;;;;12.55;6.28;;;;;;;;;;6133210;19;19934;-83
2022/10/22 06:17:02;;;;;;;10.20;5.50;;;;;;;;;;6130107;19;19976;-83
2022/10/22 06:19:06;;;;;;;12.05;6.32;;;10.80;99.90;;;;;;6130616;19;19930;-83
2022/10/22 06:21:12;;;;;;;10.00;5.95;;;10.90;99.90;;;;;;6130165;19;19930;-84
2022/10/22 06:23:16;;;;;;;14.02;6.15;;;11.20;99.90;;;;;;6130376;19;19915;-84
2022/10/22 06:25:20;;;;;;;10.35;5.88;;;11.00;99.90;;;;;;6130620;19;20270;-83
2022/10/22 06:27:24;;;;;;;12.25;6.82;;;10.90;99.90;;;;;;6130300;19;19915;-83
2022/10/22 06:29:30;;;;;;;13.07;5.95;;;11.30;99.90;;;;;;6129193;19;20336;-83
2022/10/22 06:31:35;;;;;;;11.27;5.85;;;10.70;99.90;;;;;;6130241;19;19946;-84
2022/10/22 06:33:41;;;;;;;8.38;5.50;;;;;;;;;;6127092;19;19922;-83
2022/10/22 06:35:45;;;;;;;13.63;5.13;;;10.80;99.90;;;;;;6129188;19;19926;-83
2022/10/22 06:37:49;;;;;;;10.55;5.93;;;;;;;;;;6130548;19;19919;-84
2022/10/22 06:39:53;;;;;;;9.85;5.25;;;11.10;99.90;;;;;;6132066;19;19930;-83
2022/10/22 06:41:57;;;;;;;10.77;5.63;;;;;;;;;;6130185;19;19914;-83
2022/10/22 06:44:01;;;;;;;10.48;5.43;;;;;;;;;;6131399;19;19974;-84
2022/10/22 06:46:11;;;;;;;11.63;5.63;;;11.00;99.90;;;;;;6129724;19;20363;-84
2022/10/22 06:48:15;;;;;;;10.85;5.50;;;;;;;;;;6129229;19;19919;-84
2022/10/22 06:50:19;;;;;;;11.02;5.78;;;11.20;99.90;;;;;;6128927;19;20284;-84
2022/10/22 06:52:23;;;;;;;11.80;5.80;;;10.90;99.90;;;;;;6130919;19;19914;-84
2022/10/22 06:54:27;;;;;;;10.00;5.43;;;11.40;99.90;;;;;;6131955;19;19926;-83
2022/10/22 06:56:32;;;;;;;9.82;5.70;;;;;;;;;;6130153;19;20373;-84
2022/10/22 06:58:36;;;;;;;15.23;5.40;;;11.20;99.90;;;;;;6130313;19;19911;-84
2022/10/22 07:00:40;;;;;;;10.85;6.28;;;11.30;99.90;;;;;;6130310;19;19937;-84
2022/10/22 07:02:51;;;;;;;10.48;5.95;;;11.40;99.90;;;;;;6129546;19;19918;-84
2022/10/22 07:04:55;;;;;;;8.93;5.53;;;11.50;99.90;;;;;;6129814;19;20252;-83
2022/10/22 07:06:59;;;;;;;9.95;5.55;;;11.30;99.90;;;;;;6129349;19;19910;-83
2022/10/22 07:09:03;;;;;;;14.93;6.55;;;11.40;99.90;;;;;;6128941;19;20333;-84
2022/10/22 07:11:08;;;;;;;11.40;5.50;;;11.30;99.90;;;;;;6129529;19;19923;-83
2022/10/22 07:13:12;;;;;;;14.25;5.85;;;11.60;99.90;;;;;;6128259;19;19981;-84
2022/10/22 07:15:16;;;;;;;11.23;5.45;;;11.70;99.90;;;;;;6129550;19;19919;-83
2022/10/22 07:17:20;;;;;;;14.82;6.45;;;;;;;;;;6129542;19;19911;-83
2022/10/22 07:19:27;;;;;;;11.70;5.28;;;11.60;99.90;;;;;;6129577;19;19934;-84
2022/10/22 07:21:31;;;;;;;11.05;5.65;;;11.70;99.90;;;;;;6132958;19;19945;-83
2022/10/22 07:23:35;;;;;;;10.70;5.97;;;11.50;99.90;;;;;;6130190;19;19922;-83
2022/10/22 07:25:39;;;;;;;10.95;5.97;;;11.70;99.90;;;;;;6128171;19;20355;-83
2022/10/22 07:27:43;;;;;;;12.32;5.97;;;11.60;99.90;;;;;;6127463;19;20280;-83
2022/10/22 07:29:47;;;;;;;13.60;5.65;;;11.70;99.90;;;;;;6125995;19;19918;-83
2022/10/22 07:31:51;;;;;;;12.40;5.70;;;11.70;99.90;;;;;;6126933;19;19926;-83
2022/10/22 07:33:55;;;;;;;11.23;5.97;;;11.70;99.90;;;;;;6127704;19;19930;-83
2022/10/22 07:36:07;;;;;;;11.43;6.15;;;11.80;99.90;;;;;;6129538;19;19918;-84
2022/10/22 07:38:11;;;;;;;9.38;5.05;;;11.80;99.90;;;;;;6128266;19;19918;-83
2022/10/22 07:40:15;;;;;;;10.65;5.57;;;11.90;99.90;;;;;;6127933;19;19944;-84
2022/10/22 07:42:19;;;;;;;8.20;5.18;;;12.00;99.90;;;;;;6127174;19;19990;-83
2022/10/22 07:44:23;;;;;;;10.68;5.38;;;12.20;99.90;;;;;;6128943;19;19943;-83
2022/10/22 07:46:28;;;;;;;14.77;6.10;;;12.50;99.90;;;;;;6127080;19;19918;-82
2022/10/22 07:48:32;;;;;;;11.35;5.78;;;12.00;99.90;;;;;;6126919;19;19919;-82
2022/10/22 07:50:36;;;;;;;10.30;5.47;;;12.70;99.90;;;;;;6126878;19;19934;-83
2022/10/22 07:52:42;;;;;;;9.82;5.32;;;12.30;99.90;;;;;;6128617;19;19918;-82
2022/10/22 07:54:46;;;;;;;12.93;5.35;;;12.50;99.90;;;;;;6127548;19;20378;-83
2022/10/22 07:56:51;;;;;;;9.13;5.22;;;12.40;99.90;;;;;;6128309;19;19918;-84
2022/10/22 07:58:54;;;;;;;14.65;5.22;;;12.80;99.90;;;;;;6126959;19;19918;-83
2022/10/22 08:01:00;;;;;;;14.70;5.35;;;12.60;99.90;;;;;;6126142;19;20336;-83
2022/10/22 08:03:04;;;;;;;11.02;5.13;;;12.10;99.90;;;;;;6129273;19;19951;-83
2022/10/22 08:05:10;;;;;;;12.88;5.60;;;12.60;99.90;;;;;;6126633;19;19915;-84
2022/10/22 08:07:13;;;;;;;11.23;5.32;;;12.60;99.90;;;;;;6127260;19;19934;-83
2022/10/22 08:09:20;;;;;;;9.95;4.88;;;12.50;99.90;;;;;;6127224;19;19941;-83
2022/10/22 08:11:24;;;;;;;10.68;5.20;;;12.40;99.90;;;;;;6131280;19;19907;-83
2022/10/22 08:13:29;;;;;;;7.70;4.93;;;;;;;;;;6132564;19;19911;-83
2022/10/22 08:15:33;;;;;;;8.40;5.35;;;12.70;99.90;;;;;;6127665;19;19978;-83
2022/10/22 08:17:37;;;;;;;10.10;5.20;;;12.50;99.90;;;;;;6126524;19;20342;-83
2022/10/22 08:19:40;;;;;;;10.13;5.30;;;12.80;99.90;;;;;;6128077;19;19918;-84
2022/10/22 08:21:44;;;;;;;8.80;5.63;;;12.50;99.90;;;;;;6129024;19;19922;-83
2022/10/22 08:23:48;;;;;;;9.23;4.20;;;12.30;99.90;;;;;;6125506;19;19915;-84
2022/10/22 08:25:55;;;;;;;8.70;4.93;;;13.10;99.90;;;;;;6129267;19;19911;-83
2022/10/22 08:27:59;;;;;;;11.68;4.60;;;12.70;99.90;;;;;;6134243;19;19922;-83
2022/10/22 08:30:03;;;;;;;10.10;4.45;;;12.80;99.90;;;;;;6130109;19;19922;-83
2022/10/22 08:32:07;;;;;;;9.80;4.88;;;12.80;99.90;;;;;;6130552;19;19918;-83
2022/10/22 08:34:11;;;;;;;12.88;4.88;;;12.60;99.90;;;;;;6131546;19;20348;-83
2022/10/22 08:36:15;;;;;;;9.00;4.13;;;12.60;99.90;;;;;;6131495;19;19907;-83
2022/10/22 08:38:20;;;;;;;9.40;4.50;;;13.00;99.90;;;;;;6132086;19;20309;-83
2022/10/22 08:40:31;;;;;;;8.15;5.05;;;13.00;99.90;;;;;;6131054;19;19918;-82
2022/10/22 08:43:01;;;;;;;8.07;4.10;;;12.90;99.90;;;;;;6131440;19;19961;-82
2022/10/22 08:45:13;;;;;;;8.88;4.70;;;13.40;99.90;;;;;;6130989;19;20267;-80
2022/10/22 08:47:51;;;;;;;8.77;4.68;;;13.10;99.90;;;;;;6131138;19;20260;-82
2022/10/22 08:49:55;;;;;;;;;;;13.20;99.90;;;;;;6131444;19;19942;-82
2022/10/22 08:52:00;;;;;;;10.25;4.65;;;12.80;99.90;;;;;;6130775;19;19922;-83
2022/10/22 08:54:18;;;;;;;7.90;4.82;;;13.40;99.90;;;;;;6135459;19;19918;-82
2022/10/22 08:56:24;;;;;;;11.55;4.47;;;13.10;99.90;;;;;;6130492;19;19914;-84
2022/10/22 08:58:39;;;;;;;10.95;4.05;;;13.00;99.90;;;;;;6130937;19;20266;-82
2022/10/22 09:00:47;;;;;;;10.05;4.32;;;13.30;99.90;;;;;;6134235;19;19914;-81
2022/10/22 09:03:04;;;;;;;8.40;4.40;;;13.60;99.90;;;;;;6132663;19;19926;-77
2022/10/22 09:05:24;;;;;;;10.75;4.63;;;13.40;99.90;;;;;;6130913;19;20487;-80
2022/10/22 09:07:28;;;;;;;8.65;5.05;;;13.10;99.90;;;;;;6132143;19;19954;-76
2022/10/22 09:09:37;;;;;;;11.98;4.05;;;13.20;99.90;;;;;;6127518;19;20026;-76
2022/10/22 09:11:45;;;;;;;12.70;4.20;;;13.20;99.90;;;;;;6132597;19;20353;-82
2022/10/22 09:13:52;;;;;;;7.07;3.58;;;13.70;99.90;;;;;;6130376;19;19936;-82
2022/10/22 09:16:01;;;;;;;10.38;4.35;;;13.90;99.90;;;;;;6132118;19;19915;-80
2022/10/22 09:18:21;;;;;;;8.60;3.10;;;13.50;99.90;;;;;;6129211;19;20361;-80
2022/10/22 09:20:34;;;;;;;11.88;3.53;;;14.30;99.90;;;;;;6132536;19;19970;-88
2022/10/22 09:22:44;;;;;;;11.52;4.00;;;14.30;99.90;;;;;;6132852;19;19950;-81
2022/10/22 09:24:50;;;;;;;10.45;4.53;;;13.80;99.90;;;;;;6129778;19;19926;-81
2022/10/22 09:26:54;;;;;;;6.70;3.55;;;;;;;;;;6131794;19;19914;-80
2022/10/22 09:29:02;;;;;;;10.98;3.83;;;14.30;99.90;;;;;;6129784;19;20264;-78
2022/10/22 09:31:12;;;;;;;9.75;3.30;;;13.90;99.90;;;;;;6130463;19;19918;-80
2022/10/22 09:33:18;;;;;;;7.70;3.03;;;14.40;99.90;;;;;;6130481;19;20299;-82
2022/10/22 09:35:25;;;;;;;8.02;2.83;;;15.00;99.90;;;;;;6131389;19;19915;-82
2022/10/22 09:37:31;;;;;;;5.80;3.03;;;14.20;99.90;;;;;;6127358;19;19938;-81
2022/10/22 09:39:38;;;;;;;6.03;3.22;;;14.50;99.90;;;;;;6129661;19;20470;-82
2022/10/22 09:41:42;;;;;;;9.70;3.03;;;14.30;99.90;;;;;;6129942;19;19930;-86
2022/10/22 09:43:48;;;;;;;14.50;3.47;;;14.30;99.90;;;;;;6129844;19;19927;-88
2022/10/22 09:46:02;;;;;;;10.48;3.03;;;14.90;99.90;;;;;;6130584;19;19938;-87
2022/10/22 09:48:13;;;;;;;5.47;3.33;;;15.00;99.90;;;;;;6128541;19;19919;-81
2022/10/22 09:50:23;;;;;;;5.20;2.70;;;14.80;99.90;;;;;;6127608;19;19917;-79
2022/10/22 09:52:32;;;;;;;6.22;2.80;;;14.50;99.90;;;;;;6129156;19;19945;-89
2022/10/22 09:54:43;;;;;;;10.00;3.28;;;14.40;99.90;;;;;;6129649;19;20368;-83
2022/10/22 09:56:53;;;;;;;11.70;3.17;;;15.30;99.90;;;;;;6129385;19;19914;-83
2022/10/22 09:58:59;;;;;;;8.50;2.72;;;14.70;99.90;;;;;;6128965;19;19929;-79
2022/10/22 10:01:06;;;;;;;11.43;3.60;;;14.80;99.90;;;;;;6128918;19;20019;-76
2022/10/22 10:03:19;;;;;;;8.82;2.90;;;14.80;99.90;;;;;;6127795;19;19911;-77
2022/10/22 10:05:28;;;;;;;9.77;2.83;;;14.90;99.90;;;;;;6127011;19;20344;-75
2022/10/22 10:07:34;;;;;;;11.38;3.20;;;15.20;99.90;;;;;;6128731;19;19919;-76
2022/10/22 10:09:38;;;;;;;9.20;3.13;;;15.00;99.90;;;;;;6127566;19;20015;-78
2022/10/22 10:11:47;;;;;;;8.82;2.67;;;16.10;99.90;;;;;;6127774;19;19910;-77
2022/10/22 10:14:02;;;;;;;9.63;2.95;;;15.80;99.90;;;;;;6127587;19;19934;-78
2022/10/22 10:16:22;;;;;;;9.68;3.22;;;15.00;99.90;;;;;;6125978;19;19918;-77
2022/10/22 10:18:36;;;;;;;7.80;3.28;;;15.80;99.90;;;;;;6129752;19;19937;-79
2022/10/22 10:20:48;;;;;;;10.70;3.45;;;15.50;99.90;;;;;;6129442;19;19982;-78
2022/10/22 10:22:58;;;;;;;8.55;3.33;;;15.50;99.90;;;;;;6129124;19;19918;-76
2022/10/22 10:25:31;;;;;;;8.38;2.33;;;15.40;99.90;;;;;;6129619;19;20253;-76
2022/10/22 10:27:39;;;;;;;8.77;2.92;;;15.00;99.90;;;;;;6127796;19;19914;-76
2022/10/22 10:29:55;;;;;;;5.80;2.58;;;15.40;99.90;;;;;;6126648;19;19914;-76
2022/10/22 10:32:19;;;;;;;8.95;2.97;;;15.50;99.90;;;;;;6128412;19;19965;-75
2022/10/22 10:34:37;;;;;;;7.80;2.75;;;15.70;99.90;;;;;;6130972;19;19919;-77
2022/10/22 10:36:50;;;;;;;8.90;2.83;;;15.80;99.90;;;;;;6128449;19;20253;-78
2022/10/22 10:39:00;;;;;;;6.38;2.28;;;15.20;99.90;;;;;;6127215;19;20270;-77
2022/10/22 10:41:18;;;;;;;6.50;2.72;;;14.90;99.90;;;;;;6129118;19;19946;-77
2022/10/22 10:43:29;;;;;;;6.38;2.42;;;15.20;99.90;;;;;;6128328;19;20337;-78
2022/10/22 10:45:39;;;;;;;7.97;3.03;;;15.20;99.90;;;;;;6128694;19;19923;-77
2022/10/22 10:48:09;;;;;;;12.32;2.65;;;15.30;99.90;;;;;;6129012;19;19918;-82
2022/10/22 10:50:25;;;;;;;10.32;2.97;;;14.90;99.90;;;;;;6128573;19;20333;-81
2022/10/22 10:52:36;;;;;;;5.22;2.80;;;14.70;99.90;;;;;;6128537;19;20354;-81
2022/10/22 10:54:48;;;;;;;8.30;2.80;;;15.60;99.90;;;;;;6132099;19;19925;-81
2022/10/22 10:56:57;;;;;;;7.25;2.75;;;15.10;99.90;;;;;;6132128;19;19922;-81
2022/10/22 10:59:14;;;;;;;9.63;3.00;;;15.50;99.90;;;;;;6128692;19;20336;-82
2022/10/22 11:01:26;;;;;;;8.13;3.17;;;14.60;99.90;;;;;;6126819;19;19938;-82
2022/10/22 11:03:58;;;;;;;8.55;2.75;;;15.10;99.90;;;;;;6129781;19;19914;-81